Time;durP1;ratioP1;P1;durP2;ratioP2;P2;SDS_P1;SDS_P2;PMS_P1;PMS_P2;Temp;Humidity;BMP_temperature;BMP_pressure;BME280_temperature;BME280_humidity;BME280_pressure;Samples;Min_cycle;Max_cycle;Signal;HPM_P1;HPM_P2
2021/09/21 00:00:37;;;;;;;0.73;0.73;;;17.60;99.90;;;;;;5970902;23;20208;-76
2021/09/21 00:03:04;;;;;;;0.75;0.63;;;17.50;99.90;;;;;;5972246;23;20564;-77
2021/09/21 00:05:31;;;;;;;0.93;0.75;;;17.50;99.90;;;;;;5971804;23;20230;-76
2021/09/21 00:07:58;;;;;;;0.70;0.70;;;17.50;99.90;;;;;;5972388;23;20782;-77
2021/09/21 00:10:26;;;;;;;1.35;0.60;;;17.50;99.90;;;;;;5970854;23;20212;-76
2021/09/21 00:12:53;;;;;;;0.70;0.70;;;17.50;99.90;;;;;;5972671;23;20652;-76
2021/09/21 00:15:22;;;;;;;0.60;0.60;;;17.50;99.90;;;;;;5972139;23;20272;-76
2021/09/21 00:17:50;;;;;;;0.85;0.80;;;17.50;99.90;;;;;;5958736;23;20204;-75
2021/09/21 00:20:18;;;;;;;1.05;0.70;;;17.60;99.90;;;;;;5972744;23;20273;-76
2021/09/21 00:22:46;;;;;;;0.70;0.70;;;17.50;99.90;;;;;;5972132;23;20213;-76
2021/09/21 00:25:15;;;;;;;1.15;0.60;;;17.50;99.90;;;;;;5972149;23;20208;-75
2021/09/21 00:27:43;;;;;;;0.70;0.70;;;17.50;99.90;;;;;;5972134;23;20220;-75
2021/09/21 00:30:12;;;;;;;1.05;0.90;;;17.50;99.90;;;;;;5971820;23;20215;-78
2021/09/21 00:32:43;;;;;;;0.80;0.80;;;17.50;99.90;;;;;;5971443;23;20206;-75
2021/09/21 00:35:10;;;;;;;0.70;0.70;;;17.40;99.90;;;;;;5971936;23;20211;-76
2021/09/21 00:37:38;;;;;;;0.73;0.73;;;17.40;99.90;;;;;;5971851;23;20213;-76
2021/09/21 00:40:07;;;;;;;0.55;0.55;;;17.40;99.90;;;;;;5928598;23;20670;-77
2021/09/21 00:42:34;;;;;;;0.70;0.70;;;17.30;99.90;;;;;;6069771;23;20773;-76
2021/09/21 00:45:03;;;;;;;0.70;0.70;;;17.40;99.90;;;;;;6055860;23;20229;-76
2021/09/21 00:47:31;;;;;;;0.73;0.73;;;17.40;99.90;;;;;;6056085;23;20217;-76
2021/09/21 00:50:00;;;;;;;0.73;0.73;;;17.40;99.90;;;;;;6057591;23;20206;-77
2021/09/21 00:52:27;;;;;;;0.80;0.80;;;17.40;99.90;;;;;;6056389;23;20218;-77
2021/09/21 00:54:54;;;;;;;0.63;0.63;;;17.40;99.90;;;;;;6057044;23;20710;-77
2021/09/21 00:57:21;;;;;;;0.60;0.60;;;17.40;99.90;;;;;;6056531;23;20210;-76
2021/09/21 00:59:48;;;;;;;0.70;0.70;;;17.40;99.90;;;;;;6057591;23;20836;-77
2021/09/21 01:02:15;;;;;;;0.70;0.70;;;17.40;99.90;;;;;;6056417;23;20213;-77
2021/09/21 01:04:42;;;;;;;0.80;0.70;;;17.40;99.90;;;;;;6057262;23;20277;-77
2021/09/21 01:07:11;;;;;;;0.60;0.60;;;17.30;99.90;;;;;;6055969;23;20202;-76
2021/09/21 01:09:39;;;;;;;0.73;0.73;;;17.30;99.90;;;;;;6057751;23;20690;-76
2021/09/21 01:12:06;;;;;;;1.17;0.70;;;17.30;99.90;;;;;;6059554;23;20229;-77
2021/09/21 01:14:33;;;;;;;1.88;0.90;;;17.30;99.90;;;;;;6059705;23;20213;-77
2021/09/21 01:17:00;;;;;;;0.65;0.65;;;17.20;99.90;;;;;;6058450;23;22402;-77
2021/09/21 01:19:27;;;;;;;0.65;0.65;;;17.20;99.90;;;;;;6059478;23;20217;-77
2021/09/21 01:21:55;;;;;;;0.60;0.60;;;17.10;99.90;;;;;;6060303;23;20202;-77
2021/09/21 01:24:23;;;;;;;1.15;0.80;;;17.20;99.90;;;;;;6061587;23;20206;-77
2021/09/21 01:26:50;;;;;;;0.63;0.63;;;17.20;99.90;;;;;;6057766;23;20257;-77
2021/09/21 01:29:17;;;;;;;2.67;0.82;;;17.10;99.90;;;;;;6058908;23;20206;-77
2021/09/21 01:31:44;;;;;;;1.50;0.70;;;17.10;99.90;;;;;;6057329;23;20266;-77
2021/09/21 01:34:17;;;;;;;0.68;0.68;;;17.10;99.90;;;;;;6056224;23;20210;-77
2021/09/21 01:36:45;;;;;;;0.80;0.77;;;17.10;99.90;;;;;;6056483;23;20273;-77
2021/09/21 01:39:13;;;;;;;1.05;0.80;;;17.10;99.90;;;;;;6057054;23;20202;-77
2021/09/21 01:41:40;;;;;;;0.55;0.55;;;17.10;99.90;;;;;;6055884;23;20217;-77
2021/09/21 01:44:07;;;;;;;0.75;0.75;;;17.10;99.90;;;;;;6056070;23;20593;-77
2021/09/21 01:46:34;;;;;;;0.70;0.70;;;17.10;99.90;;;;;;6056595;23;20210;-77
2021/09/21 01:49:01;;;;;;;0.70;0.70;;;17.10;99.90;;;;;;6056463;23;20471;-76
2021/09/21 01:51:31;;;;;;;0.60;0.60;;;17.10;99.90;;;;;;6056461;23;20210;-76
2021/09/21 01:54:12;;;;;;;0.60;0.60;;;17.10;99.90;;;;;;6055603;23;20234;-76
2021/09/21 01:59:27;;;;;;;0.80;0.80;;;17.10;99.90;;;;;;6029755;23;20214;-77
2021/09/21 02:01:54;;;;;;;0.60;0.60;;;17.10;99.90;;;;;;6056886;23;20273;-76
2021/09/21 02:04:22;;;;;;;0.70;0.70;;;17.10;99.90;;;;;;6057716;23;20690;-77
2021/09/21 02:06:49;;;;;;;0.60;0.60;;;17.10;99.90;;;;;;6019553;23;20202;-77
2021/09/21 02:09:16;;;;;;;0.60;0.60;;;17.10;99.90;;;;;;6056686;23;20202;-77
2021/09/21 02:11:46;;;;;;;1.42;0.80;;;17.10;99.90;;;;;;6058154;23;20217;-77
2021/09/21 02:14:14;;;;;;;0.80;0.80;;;17.10;99.90;;;;;;6058728;23;20535;-76
2021/09/21 02:16:42;;;;;;;0.70;0.70;;;17.10;99.90;;;;;;6058226;23;20210;-76
2021/09/21 02:19:10;;;;;;;0.77;0.77;;;17.10;99.90;;;;;;6058681;23;20535;-77
2021/09/21 02:21:37;;;;;;;0.95;0.85;;;17.10;99.90;;;;;;6059351;23;20214;-77
2021/09/21 02:24:06;;;;;;;0.80;0.80;;;17.10;99.90;;;;;;6058855;23;20287;-76
2021/09/21 02:26:33;;;;;;;0.68;0.68;;;17.20;99.90;;;;;;6058841;23;20265;-76
2021/09/21 02:29:02;;;;;;;0.80;0.80;;;17.20;99.90;;;;;;6059279;23;20206;-77
2021/09/21 02:31:29;;;;;;;0.70;0.70;;;17.20;99.90;;;;;;6059172;23;20218;-77
2021/09/21 02:33:56;;;;;;;0.70;0.70;;;17.20;99.90;;;;;;6056281;23;20265;-76
2021/09/21 02:36:23;;;;;;;0.70;0.70;;;17.20;99.90;;;;;;6058970;23;20265;-77
2021/09/21 02:38:50;;;;;;;0.70;0.70;;;17.10;99.90;;;;;;6058061;23;20202;-77
2021/09/21 02:41:17;;;;;;;1.70;0.63;;;17.10;99.90;;;;;;6057936;23;20232;-76
2021/09/21 02:43:44;;;;;;;0.75;0.75;;;17.20;99.90;;;;;;6059295;23;20210;-76
2021/09/21 02:46:13;;;;;;;0.80;0.80;;;17.10;99.90;;;;;;6061414;23;20221;-77
2021/09/21 02:48:40;;;;;;;2.55;0.77;;;17.10;99.90;;;;;;6057988;23;20217;-76
2021/09/21 02:51:08;;;;;;;0.60;0.60;;;17.00;99.90;;;;;;6057284;23;20214;-77
2021/09/21 02:53:35;;;;;;;0.70;0.70;;;17.00;99.90;;;;;;6058835;23;20210;-77
2021/09/21 02:56:02;;;;;;;0.70;0.60;;;17.10;99.90;;;;;;6058010;23;20674;-76
2021/09/21 02:58:29;;;;;;;0.70;0.70;;;17.10;99.90;;;;;;6057005;23;20210;-77
2021/09/21 03:00:58;;;;;;;0.80;0.80;;;17.10;99.90;;;;;;6057107;23;20214;-76
2021/09/21 03:03:31;;;;;;;0.80;0.80;;;17.10;99.90;;;;;;6058403;23;20233;-77
2021/09/21 03:06:02;;;;;;;0.70;0.70;;;17.10;99.90;;;;;;6057865;23;20534;-77
2021/09/21 03:08:30;;;;;;;0.80;0.80;;;17.10;99.90;;;;;;6056646;23;20489;-76
2021/09/21 03:11:11;;;;;;;0.70;0.70;;;17.10;99.90;;;;;;6057077;23;20202;-77
2021/09/21 03:19:09;;;;;;;1.00;0.73;;;17.10;99.90;;;;;;6056471;23;20593;-77
2021/09/21 03:21:36;;;;;;;0.52;0.52;;;17.10;99.90;;;;;;6056286;23;20207;-77
2021/09/21 03:24:03;;;;;;;1.23;0.90;;;17.10;99.90;;;;;;6055433;23;20667;-77
2021/09/21 03:26:30;;;;;;;0.88;0.88;;;17.10;99.90;;;;;;6057091;23;20261;-76
2021/09/21 03:28:57;;;;;;;1.70;0.80;;;17.10;99.90;;;;;;6055636;23;20210;-76
2021/09/21 03:31:24;;;;;;;0.75;0.70;;;17.10;99.90;;;;;;6056860;23;20210;-77
2021/09/21 03:33:51;;;;;;;0.80;0.80;;;17.00;99.90;;;;;;6058344;23;20210;-77
2021/09/21 03:36:19;;;;;;;0.85;0.85;;;17.10;99.90;;;;;;6057245;23;20206;-77
2021/09/21 03:38:46;;;;;;;0.80;0.80;;;17.00;99.90;;;;;;6057458;23;20516;-77
2021/09/21 03:41:13;;;;;;;0.80;0.80;;;17.00;99.90;;;;;;6057350;23;20229;-77
2021/09/21 03:43:40;;;;;;;0.80;0.80;;;17.00;99.90;;;;;;6057835;23;20213;-77
2021/09/21 03:46:07;;;;;;;0.80;0.80;;;16.90;99.90;;;;;;6059489;23;20591;-76
2021/09/21 03:48:34;;;;;;;0.88;0.88;;;16.90;99.90;;;;;;6058171;23;20214;-76
2021/09/21 03:51:02;;;;;;;0.70;0.70;;;16.80;99.90;;;;;;6057406;23;20241;-77
2021/09/21 03:53:30;;;;;;;0.82;0.82;;;16.90;99.90;;;;;;6057809;23;20237;-76
2021/09/21 03:55:57;;;;;;;0.90;0.90;;;16.90;99.90;;;;;;6057496;23;20915;-77
2021/09/21 03:58:24;;;;;;;0.90;0.90;;;16.90;99.90;;;;;;6057287;23;20270;-76
2021/09/21 04:00:51;;;;;;;0.77;0.77;;;16.90;99.90;;;;;;6059863;23;20210;-77
2021/09/21 04:03:18;;;;;;;2.90;1.00;;;16.90;99.90;;;;;;6057630;23;20278;-78
2021/09/21 04:05:45;;;;;;;0.90;0.90;;;16.90;99.90;;;;;;6058596;23;20715;-77
2021/09/21 04:08:12;;;;;;;0.73;0.73;;;16.80;99.90;;;;;;6057848;23;20210;-77
2021/09/21 04:10:40;;;;;;;0.80;0.80;;;16.70;99.90;;;;;;6057906;23;20222;-77
2021/09/21 04:13:07;;;;;;;0.80;0.80;;;16.60;99.90;;;;;;6057371;23;20856;-77
2021/09/21 04:15:35;;;;;;;0.90;0.90;;;16.50;99.90;;;;;;6058022;23;20206;-77
2021/09/21 04:18:04;;;;;;;0.73;0.73;;;16.40;99.90;;;;;;6057487;23;20206;-77
2021/09/21 04:20:31;;;;;;;0.90;0.90;;;16.40;99.90;;;;;;6057941;23;20218;-77
2021/09/21 04:22:58;;;;;;;0.75;0.75;;;16.30;99.90;;;;;;6057289;23;20713;-77
2021/09/21 04:25:26;;;;;;;0.70;0.70;;;16.20;99.90;;;;;;6058040;23;20221;-77
2021/09/21 04:27:54;;;;;;;0.63;0.63;;;16.20;99.90;;;;;;6057765;23;20206;-75
2021/09/21 04:30:22;;;;;;;1.48;1.00;;;16.30;99.90;;;;;;6059220;23;20210;-77
2021/09/21 04:32:49;;;;;;;0.90;0.90;;;16.40;99.90;;;;;;6018991;23;20542;-77
2021/09/21 04:35:16;;;;;;;0.70;0.70;;;16.40;99.90;;;;;;6058106;23;20210;-77
2021/09/21 04:37:43;;;;;;;0.88;0.88;;;16.50;99.90;;;;;;6057010;23;20280;-76
2021/09/21 04:40:12;;;;;;;0.82;0.82;;;16.50;99.90;;;;;;6058161;23;20285;-77
2021/09/21 04:42:39;;;;;;;0.82;0.82;;;16.60;99.90;;;;;;6057108;23;20674;-77
2021/09/21 04:45:08;;;;;;;0.82;0.82;;;16.60;99.90;;;;;;6057629;23;20206;-77
2021/09/21 04:47:35;;;;;;;0.75;0.75;;;16.60;99.90;;;;;;6056777;23;20276;-77
2021/09/21 04:50:03;;;;;;;1.05;0.90;;;16.50;99.90;;;;;;6058414;23;20210;-77
2021/09/21 04:52:31;;;;;;;0.80;0.80;;;16.40;99.90;;;;;;6058165;23;20221;-77
2021/09/21 04:54:57;;;;;;;1.00;0.90;;;16.40;99.90;;;;;;6057418;23;20213;-77
2021/09/21 04:57:24;;;;;;;1.67;0.95;;;16.30;99.90;;;;;;6056310;23;20211;-77
2021/09/21 04:59:52;;;;;;;0.70;0.70;;;16.30;99.90;;;;;;6057110;23;20214;-77
2021/09/21 05:02:20;;;;;;;0.90;0.90;;;16.30;99.90;;;;;;6058160;23;20226;-76
2021/09/21 05:04:47;;;;;;;0.98;0.98;;;16.40;99.90;;;;;;6056729;23;20214;-77
2021/09/21 05:07:14;;;;;;;0.90;0.90;;;16.50;99.90;;;;;;6057389;23;20608;-77
2021/09/21 05:09:41;;;;;;;0.80;0.80;;;16.60;99.90;;;;;;6057016;23;20698;-77
2021/09/21 05:12:08;;;;;;;0.85;0.85;;;16.60;99.90;;;;;;6056374;23;20258;-76
2021/09/21 05:14:35;;;;;;;0.95;0.95;;;16.40;99.90;;;;;;6057093;23;20210;-77
2021/09/21 05:17:02;;;;;;;1.00;1.00;;;16.20;99.90;;;;;;6055947;23;20233;-77
2021/09/21 05:19:31;;;;;;;1.70;1.20;;;16.00;99.90;;;;;;6057280;23;20285;-77
2021/09/21 05:21:58;;;;;;;0.93;0.93;;;15.80;99.90;;;;;;6055495;23;20257;-78
2021/09/21 05:24:25;;;;;;;0.93;0.93;;;15.70;99.90;;;;;;6054616;23;20613;-78
2021/09/21 05:26:52;;;;;;;1.08;0.98;;;15.40;99.90;;;;;;6054951;23;20689;-78
2021/09/21 05:29:19;;;;;;;1.30;1.17;;;15.20;99.90;;;;;;6055511;23;20274;-76
2021/09/21 05:31:46;;;;;;;1.15;0.93;;;15.20;99.90;;;;;;6055982;23;20198;-76
2021/09/21 05:34:13;;;;;;;1.40;1.30;;;15.30;99.90;;;;;;6058448;23;20206;-77
2021/09/21 05:36:41;;;;;;;1.83;1.35;;;15.50;99.90;;;;;;6057805;23;20206;-77
2021/09/21 05:39:09;;;;;;;1.42;1.10;;;15.60;99.90;;;;;;6055536;23;20202;-80
2021/09/21 05:41:36;;;;;;;1.20;1.10;;;15.50;99.90;;;;;;6054381;23;20213;-77
2021/09/21 05:44:03;;;;;;;1.58;1.13;;;15.70;99.90;;;;;;6053807;23;20209;-78
2021/09/21 05:46:30;;;;;;;0.93;0.90;;;16.00;99.90;;;;;;6055309;23;20552;-76
2021/09/21 05:48:59;;;;;;;0.90;0.90;;;16.30;99.90;;;;;;6055359;23;20206;-78
2021/09/21 05:51:27;;;;;;;1.20;1.10;;;16.60;99.90;;;;;;6054464;23;20217;-78
2021/09/21 05:53:56;;;;;;;2.40;0.98;;;16.80;99.90;;;;;;6054121;23;20209;-78
2021/09/21 05:56:23;;;;;;;2.45;1.10;;;16.80;99.90;;;;;;6057859;23;20683;-78
2021/09/21 05:58:51;;;;;;;1.27;1.02;;;16.70;99.90;;;;;;6058200;23;20198;-78
2021/09/21 06:01:18;;;;;;;1.17;1.08;;;16.60;99.90;;;;;;6057200;23;20210;-78
2021/09/21 06:03:45;;;;;;;2.90;1.27;;;16.60;99.90;;;;;;6057297;23;20678;-78
2021/09/21 06:06:12;;;;;;;1.85;1.40;;;16.90;99.90;;;;;;6056869;23;20277;-79
2021/09/21 06:08:39;;;;;;;1.98;1.30;;;17.20;99.90;;;;;;6056765;23;20222;-79
2021/09/21 06:11:07;;;;;;;1.95;1.05;;;17.60;99.90;;;;;;6056577;23;20214;-78
2021/09/21 06:13:34;;;;;;;2.75;1.30;;;17.50;99.90;;;;;;6056808;23;20218;-78
2021/09/21 06:16:01;;;;;;;1.75;1.15;;;17.50;99.90;;;;;;6057527;23;20614;-78
2021/09/21 06:18:28;;;;;;;1.80;1.20;;;17.60;99.90;;;;;;6056379;23;20206;-79
2021/09/21 06:20:55;;;;;;;1.80;1.20;;;17.70;99.90;;;;;;6057138;23;20610;-78
2021/09/21 06:23:22;;;;;;;1.15;1.08;;;17.70;99.90;;;;;;6051044;23;20214;-78
2021/09/21 06:25:49;;;;;;;1.42;1.27;;;17.60;99.90;;;;;;6058045;23;20202;-79
2021/09/21 06:28:18;;;;;;;1.92;1.10;;;17.50;99.90;;;;;;6056379;23;20857;-79
2021/09/21 06:30:45;;;;;;;1.88;1.30;;;17.30;99.90;;;;;;6057085;23;20214;-78
2021/09/21 06:33:12;;;;;;;1.52;1.00;;;17.20;99.90;;;;;;6056770;23;20567;-78
2021/09/21 06:35:39;;;;;;;1.13;1.02;;;17.20;99.90;;;;;;6056467;23;20246;-79
2021/09/21 06:38:06;;;;;;;1.10;1.10;;;17.20;99.90;;;;;;6056731;23;20222;-78
2021/09/21 06:40:33;;;;;;;1.30;1.20;;;17.20;99.90;;;;;;6033695;23;20215;-77
2021/09/21 06:43:00;;;;;;;1.75;1.23;;;17.20;99.90;;;;;;6054843;23;20606;-78
2021/09/21 06:45:29;;;;;;;1.38;1.23;;;17.20;99.90;;;;;;6054359;23;20207;-78
2021/09/21 06:47:56;;;;;;;2.10;1.00;;;17.40;99.90;;;;;;6039592;23;20551;-77
2021/09/21 06:50:23;;;;;;;1.55;1.17;;;17.80;99.90;;;;;;6029698;23;20203;-75
2021/09/21 06:52:50;;;;;;;1.70;1.30;;;18.60;99.90;;;;;;6051938;23;20206;-77
2021/09/21 06:55:17;;;;;;;1.40;1.30;;;19.20;99.90;;;;;;6056911;23;20257;-77
2021/09/21 06:57:49;;;;;;;1.17;1.08;;;19.80;99.90;;;;;;6057927;23;20265;-77
2021/09/21 07:00:17;;;;;;;1.77;1.17;;;20.10;99.90;;;;;;6058768;23;20214;-77
2021/09/21 07:02:48;;;;;;;2.22;1.20;;;20.20;99.90;;;;;;6058008;23;20214;-77
2021/09/21 07:05:18;;;;;;;1.08;1.00;;;20.50;99.90;;;;;;6057165;23;20683;-77
2021/09/21 07:07:45;;;;;;;0.90;0.90;;;21.10;99.90;;;;;;6050775;23;20206;-76
2021/09/21 07:10:14;;;;;;;2.20;1.10;;;21.20;99.90;;;;;;6048318;23;20213;-76
2021/09/21 07:12:42;;;;;;;1.02;1.02;;;21.40;99.90;;;;;;6057562;23;20214;-77
2021/09/21 07:15:10;;;;;;;1.13;1.02;;;21.20;99.90;;;;;;6056174;23;20206;-76
2021/09/21 07:17:37;;;;;;;1.23;1.10;;;21.00;99.90;;;;;;6059008;23;20213;-77
2021/09/21 07:20:07;;;;;;;1.02;1.02;;;20.80;99.90;;;;;;6056362;23;20202;-77
2021/09/21 07:22:34;;;;;;;2.35;1.27;;;20.50;99.90;;;;;;6058198;23;20440;-76
2021/09/21 07:25:01;;;;;;;1.52;1.42;;;20.30;99.90;;;;;;6059141;23;20221;-76
2021/09/21 07:27:28;;;;;;;1.63;1.27;;;20.20;99.90;;;;;;6058629;23;20234;-75
2021/09/21 07:29:55;;;;;;;1.55;1.25;;;20.10;99.90;;;;;;6057195;23;20691;-77
2021/09/21 07:32:22;;;;;;;0.95;0.93;;;20.10;99.90;;;;;;6058710;23;20213;-77
2021/09/21 07:34:49;;;;;;;3.05;1.13;;;20.20;99.90;;;;;;6020012;23;20197;-75
2021/09/21 07:37:17;;;;;;;1.00;1.00;;;20.10;99.90;;;;;;6057420;23;20659;-77
2021/09/21 07:39:45;;;;;;;1.27;1.00;;;20.30;99.90;;;;;;6057186;23;20210;-76
2021/09/21 07:42:14;;;;;;;1.00;1.00;;;20.50;99.90;;;;;;6057335;23;20214;-76
2021/09/21 07:44:41;;;;;;;1.00;0.90;;;20.80;99.90;;;;;;6057008;23;20206;-77
2021/09/21 07:47:09;;;;;;;2.50;1.48;;;20.90;99.90;;;;;;6057045;23;20209;-76
2021/09/21 07:49:36;;;;;;;1.58;1.15;;;20.80;99.90;;;;;;6058046;23;20210;-77
2021/09/21 07:52:03;;;;;;;1.30;1.20;;;20.80;99.90;;;;;;6057551;23;20213;-77
2021/09/21 07:54:31;;;;;;;1.70;1.10;;;20.60;99.90;;;;;;6057681;23;20218;-77
2021/09/21 07:56:58;;;;;;;2.67;1.20;;;20.80;99.90;;;;;;6056820;23;20198;-77
2021/09/21 07:59:26;;;;;;;1.95;1.10;;;20.90;99.90;;;;;;6057988;23;20285;-76
2021/09/21 08:01:53;;;;;;;1.85;1.30;;;20.80;99.90;;;;;;6065615;23;20221;-76
2021/09/21 08:04:20;;;;;;;2.00;1.20;;;20.70;99.90;;;;;;6057541;23;20206;-77
2021/09/21 08:06:47;;;;;;;1.75;1.25;;;21.00;99.90;;;;;;6057374;23;20261;-76
2021/09/21 08:09:14;;;;;;;1.42;1.33;;;21.00;99.90;;;;;;6056116;23;20217;-77
2021/09/21 08:11:42;;;;;;;2.55;1.33;;;21.10;99.90;;;;;;6058073;23;20699;-77
2021/09/21 08:14:10;;;;;;;2.67;1.35;;;21.30;99.90;;;;;;6057451;23;20643;-77
2021/09/21 08:16:38;;;;;;;1.85;1.10;;;21.40;99.90;;;;;;6057982;23;20945;-77
2021/09/21 08:19:05;;;;;;;2.10;1.25;;;21.50;99.90;;;;;;6057313;23;20289;-77
2021/09/21 08:21:33;;;;;;;1.02;1.02;;;21.50;99.90;;;;;;6058134;23;20218;-77
2021/09/21 08:24:01;;;;;;;3.40;1.20;;;21.60;99.90;;;;;;6050450;23;20202;-77
2021/09/21 08:26:28;;;;;;;2.63;1.20;;;21.40;99.90;;;;;;6051009;23;20217;-77
2021/09/21 08:28:56;;;;;;;1.08;1.08;;;21.50;99.90;;;;;;6050302;23;20838;-77
2021/09/21 08:31:23;;;;;;;1.08;0.98;;;21.90;99.90;;;;;;6057744;23;20266;-77
2021/09/21 08:33:50;;;;;;;1.58;1.13;;;22.00;99.90;;;;;;6051975;23;20599;-77
2021/09/21 08:36:18;;;;;;;1.10;1.00;;;22.00;99.90;;;;;;6056929;23;20198;-76
2021/09/21 08:38:45;;;;;;;1.13;1.02;;;22.00;99.90;;;;;;6057243;23;20210;-77
2021/09/21 08:41:13;;;;;;;1.20;1.10;;;22.20;99.90;;;;;;6055835;23;20761;-77
2021/09/21 08:43:40;;;;;;;0.93;0.93;;;22.10;99.90;;;;;;6057471;23;20245;-77
2021/09/21 08:46:08;;;;;;;2.10;1.08;;;22.10;99.90;;;;;;6056456;23;20254;-76
2021/09/21 08:48:35;;;;;;;1.25;1.15;;;22.40;99.90;;;;;;6056906;23;20209;-77
2021/09/21 08:51:02;;;;;;;1.33;1.23;;;22.50;99.90;;;;;;6058592;23;20202;-76
2021/09/21 08:53:29;;;;;;;1.20;1.10;;;22.50;99.90;;;;;;6057230;23;20698;-77
2021/09/21 08:55:56;;;;;;;1.05;0.98;;;22.80;99.90;;;;;;6059134;23;20210;-77
2021/09/21 08:58:25;;;;;;;0.90;0.90;;;23.00;99.90;;;;;;6059578;23;20222;-77
2021/09/21 09:00:52;;;;;;;1.10;0.85;;;23.10;99.90;;;;;;6053096;23;20236;-77
2021/09/21 09:03:22;;;;;;;1.65;0.95;;;23.00;99.90;;;;;;6020974;23;20270;-77
2021/09/21 09:05:51;;;;;;;1.52;1.05;;;23.00;99.90;;;;;;6057618;23;20282;-77
2021/09/21 09:08:29;;;;;;;0.95;0.80;;;23.00;99.90;;;;;;6057257;23;20206;-76
2021/09/21 09:11:10;;;;;;;1.38;1.27;;;23.20;99.90;;;;;;6056470;23;20248;-76
2021/09/21 09:13:37;;;;;;;1.55;1.10;;;23.30;99.90;;;;;;6057148;23;20546;-76
2021/09/21 09:16:11;;;;;;;1.33;1.23;;;23.40;99.90;;;;;;6057109;23;20262;-77
2021/09/21 09:18:40;;;;;;;0.80;0.80;;;23.50;99.90;;;;;;6056060;23;20206;-77
2021/09/21 09:21:08;;;;;;;1.17;1.08;;;23.50;99.90;;;;;;6057460;23;20284;-77
2021/09/21 09:23:36;;;;;;;0.93;0.90;;;23.60;99.90;;;;;;6057613;23;20202;-77
2021/09/21 09:26:03;;;;;;;1.42;1.10;;;23.70;99.90;;;;;;6057045;23;20232;-77
2021/09/21 09:28:30;;;;;;;1.00;0.88;;;23.60;99.90;;;;;;6057875;23;20206;-77
2021/09/21 09:30:58;;;;;;;2.00;1.00;;;23.80;99.90;;;;;;6057147;23;20266;-77
2021/09/21 09:33:25;;;;;;;1.65;1.27;;;23.90;99.90;;;;;;6057517;23;20611;-77
2021/09/21 09:35:54;;;;;;;1.27;1.02;;;23.90;99.90;;;;;;6058020;23;20202;-77
2021/09/21 09:38:23;;;;;;;1.00;1.00;;;23.70;99.90;;;;;;6057129;23;20197;-77
2021/09/21 09:40:52;;;;;;;1.20;0.88;;;23.70;99.90;;;;;;6056821;23;20237;-76
2021/09/21 09:43:21;;;;;;;0.93;0.93;;;23.70;99.90;;;;;;6057294;23;20202;-77
2021/09/21 09:45:50;;;;;;;1.15;0.80;;;23.60;99.90;;;;;;6057030;23;20214;-76
2021/09/21 09:48:18;;;;;;;1.42;0.90;;;24.00;99.90;;;;;;6057155;23;20202;-76
2021/09/21 09:50:47;;;;;;;2.05;1.13;;;24.10;99.90;;;;;;6059988;23;20269;-77
2021/09/21 09:53:18;;;;;;;1.00;1.00;;;24.00;99.90;;;;;;6058053;23;20210;-77
2021/09/21 09:55:48;;;;;;;1.20;1.08;;;24.00;99.90;;;;;;6057025;23;20206;-77
2021/09/21 09:58:16;;;;;;;1.00;0.90;;;24.00;99.90;;;;;;6057192;23;20202;-77
2021/09/21 10:00:44;;;;;;;0.80;0.80;;;24.00;99.90;;;;;;6056548;23;20241;-77
2021/09/21 10:03:11;;;;;;;1.33;1.08;;;24.10;99.90;;;;;;6057373;23;20289;-77
2021/09/21 10:05:40;;;;;;;0.77;0.77;;;24.10;99.90;;;;;;6056559;23;20210;-77
2021/09/21 10:08:08;;;;;;;0.93;0.93;;;24.00;99.90;;;;;;6056404;23;20209;-77
2021/09/21 10:13:42;;;;;;;0.90;0.90;;;24.20;99.90;;;;;;6024226;23;20212;-77
2021/09/21 10:16:09;;;;;;;1.27;0.82;;;24.40;99.90;;;;;;6056703;23;20686;-77
2021/09/21 10:18:44;;;;;;;0.95;0.77;;;24.40;99.90;;;;;;6057259;23;20209;-77
2021/09/21 10:21:11;;;;;;;0.73;0.73;;;24.50;99.90;;;;;;6056912;23;20654;-77
2021/09/21 10:23:40;;;;;;;1.27;0.95;;;24.60;99.90;;;;;;6057191;23;20683;-77
2021/09/21 10:26:17;;;;;;;1.30;0.90;;;24.40;99.90;;;;;;6056952;23;20202;-77
2021/09/21 10:28:46;;;;;;;0.80;0.80;;;24.40;99.90;;;;;;6057693;23;20206;-77
2021/09/21 10:31:15;;;;;;;0.70;0.70;;;24.40;99.90;;;;;;6057238;23;20285;-77
2021/09/21 10:33:43;;;;;;;0.90;0.80;;;24.50;99.90;;;;;;6058700;23;20206;-77
2021/09/21 10:36:17;;;;;;;0.80;0.80;;;24.60;99.90;;;;;;6058894;23;20206;-77
2021/09/21 10:38:56;;;;;;;0.70;0.70;;;24.70;99.90;;;;;;6058645;23;20229;-76
2021/09/21 10:41:24;;;;;;;0.70;0.70;;;24.70;99.90;;;;;;6059489;23;20257;-77
2021/09/21 10:44:02;;;;;;;1.15;1.00;;;24.60;99.90;;;;;;6059309;23;20202;-77
2021/09/21 10:46:29;;;;;;;1.10;1.00;;;24.70;99.90;;;;;;6061981;23;20226;-77
2021/09/21 10:49:01;;;;;;;1.50;0.80;;;24.70;99.90;;;;;;6058902;23;20834;-77
2021/09/21 10:51:31;;;;;;;0.70;0.70;;;24.70;99.90;;;;;;6058777;23;20542;-77
2021/09/21 10:54:05;;;;;;;0.70;0.70;;;24.80;99.90;;;;;;6058380;23;20687;-77
2021/09/21 10:56:40;;;;;;;0.75;0.75;;;24.80;99.90;;;;;;6058692;23;20547;-77
2021/09/21 10:59:15;;;;;;;1.58;0.82;;;24.70;99.90;;;;;;6059040;23;20228;-77
2021/09/21 11:01:47;;;;;;;1.50;0.82;;;24.80;99.90;;;;;;6058111;23;20213;-77
2021/09/21 11:04:14;;;;;;;0.60;0.60;;;25.00;99.90;;;;;;6058892;23;20266;-77
2021/09/21 11:06:44;;;;;;;0.80;0.80;;;25.00;99.90;;;;;;6058112;23;20583;-78
2021/09/21 11:09:11;;;;;;;1.67;0.80;;;24.90;99.90;;;;;;6059293;23;20281;-77
2021/09/21 11:11:39;;;;;;;0.57;0.50;;;24.80;99.90;;;;;;6057777;23;20263;-77
2021/09/21 11:14:06;;;;;;;0.75;0.75;;;24.90;99.90;;;;;;6058596;23;20202;-77
2021/09/21 11:16:33;;;;;;;0.85;0.82;;;25.10;99.90;;;;;;6057675;23;20214;-78
2021/09/21 11:19:05;;;;;;;0.70;0.70;;;25.10;99.90;;;;;;6059027;23;20221;-77
2021/09/21 11:21:32;;;;;;;0.60;0.60;;;25.10;99.90;;;;;;6058323;23;20317;-77
2021/09/21 11:23:59;;;;;;;0.70;0.70;;;24.90;99.90;;;;;;6058715;23;20270;-78
2021/09/21 11:26:26;;;;;;;0.70;0.70;;;24.70;99.90;;;;;;6057977;23;20202;-77
2021/09/21 11:28:54;;;;;;;1.35;0.70;;;24.60;99.90;;;;;;6058803;23;20234;-76
2021/09/21 11:31:22;;;;;;;0.50;0.50;;;24.70;99.90;;;;;;6057534;23;20209;-77
2021/09/21 11:33:53;;;;;;;0.70;0.70;;;24.70;99.90;;;;;;6057270;23;20742;-77
2021/09/21 11:36:21;;;;;;;0.70;0.70;;;24.80;99.90;;;;;;6055199;23;20643;-76
2021/09/21 11:38:49;;;;;;;0.73;0.70;;;24.90;99.90;;;;;;6061741;23;20257;-77
2021/09/21 11:41:18;;;;;;;0.75;0.75;;;24.80;99.90;;;;;;6059846;23;20209;-77
2021/09/21 11:43:48;;;;;;;0.70;0.70;;;24.70;99.90;;;;;;6057547;23;20274;-77
2021/09/21 11:46:16;;;;;;;0.60;0.60;;;24.80;99.90;;;;;;6058431;23;20213;-77
2021/09/21 11:48:43;;;;;;;0.88;0.70;;;24.70;99.90;;;;;;6058035;23;20205;-77
2021/09/21 11:51:10;;;;;;;0.73;0.73;;;24.70;99.90;;;;;;6058887;23;20206;-77
2021/09/21 11:53:41;;;;;;;0.70;0.70;;;24.70;99.90;;;;;;6057394;23;20271;-77
2021/09/21 11:56:10;;;;;;;0.70;0.70;;;24.70;99.90;;;;;;6057490;23;20210;-76
2021/09/21 11:58:37;;;;;;;0.60;0.60;;;24.80;99.90;;;;;;6057983;23;20210;-77
2021/09/21 12:01:05;;;;;;;0.85;0.70;;;25.00;99.90;;;;;;6057968;23;20617;-76
2021/09/21 12:03:35;;;;;;;0.60;0.60;;;24.80;99.90;;;;;;6058508;23;20528;-76
2021/09/21 12:06:04;;;;;;;0.70;0.70;;;25.00;99.90;;;;;;6057631;23;20277;-75
2021/09/21 12:08:34;;;;;;;1.02;0.80;;;25.30;99.90;;;;;;6057489;23;20217;-77
2021/09/21 12:11:07;;;;;;;0.90;0.80;;;25.30;99.90;;;;;;6057807;23;20212;-76
2021/09/21 12:13:34;;;;;;;0.70;0.70;;;25.20;99.90;;;;;;6058137;23;20206;-76
2021/09/21 12:16:04;;;;;;;0.85;0.60;;;25.10;99.90;;;;;;6058118;23;20754;-76
2021/09/21 12:18:35;;;;;;;1.58;0.80;;;25.10;99.90;;;;;;6057272;23;20258;-76
2021/09/21 12:21:04;;;;;;;1.02;0.80;;;25.10;99.90;;;;;;6057970;23;20206;-76
2021/09/21 12:23:32;;;;;;;1.02;0.70;;;25.10;99.90;;;;;;6057411;23;20738;-76
2021/09/21 12:26:00;;;;;;;1.05;0.80;;;24.80;99.90;;;;;;6057782;23;20670;-76
2021/09/21 12:28:29;;;;;;;0.63;0.63;;;24.60;99.90;;;;;;6057013;23;21117;-76
2021/09/21 12:30:58;;;;;;;1.77;0.70;;;24.60;99.90;;;;;;6057863;23;20258;-76
2021/09/21 12:33:25;;;;;;;0.70;0.70;;;24.80;99.90;;;;;;6058226;23;20214;-76
2021/09/21 12:35:54;;;;;;;0.70;0.70;;;25.00;99.90;;;;;;6058759;23;20209;-76
2021/09/21 12:38:23;;;;;;;0.65;0.65;;;24.90;99.90;;;;;;6052330;23;20258;-76
2021/09/21 12:40:53;;;;;;;0.52;0.52;;;24.90;99.90;;;;;;6052257;23;20659;-76
2021/09/21 12:43:22;;;;;;;0.60;0.60;;;24.80;99.90;;;;;;6018152;23;20205;-78
2021/09/21 12:45:51;;;;;;;0.70;0.70;;;24.60;99.90;;;;;;6071182;23;20202;-79
2021/09/21 12:48:23;;;;;;;0.68;0.60;;;24.40;99.90;;;;;;6084117;23;20276;-78
2021/09/21 12:50:56;;;;;;;0.82;0.82;;;24.40;99.90;;;;;;6083705;23;20201;-78
2021/09/21 12:53:23;;;;;;;0.80;0.80;;;24.40;99.90;;;;;;6085198;23;20209;-78
2021/09/21 12:55:55;;;;;;;0.85;0.70;;;24.50;99.90;;;;;;6083675;23;20647;-78
2021/09/21 12:58:24;;;;;;;0.73;0.70;;;24.50;99.90;;;;;;6084655;23;20197;-78
2021/09/21 13:00:52;;;;;;;0.80;0.70;;;24.50;99.90;;;;;;6083152;23;20197;-79
2021/09/21 13:03:20;;;;;;;1.15;0.60;;;24.60;99.90;;;;;;6046713;23;20287;-78